Etusivu
METAR-TAF:

METAR-TAF

Lentoasemat :

Shenandoah Municipal Airport

Shenandoah, Iowa, Yhdysvallat

Leveyspiiri: 40-45N, Pituuspiiri: 095-25W, korkeus merenpinnasta: 296 m

Tämänhetkinen sää

Tämä raportti tehtiin 24 minuuttia sitten, kello 13.55 UTC
Tuuli 5 kn koillisesta
Lämpötila 20°C
Kosteus 100%
Ilmanpaine 1021 hPa
Näkyvyys: 16.1 km
Muutamia pilviä 800 ft:n korkeudessa
Hajonneita pilviä 1700 ft:n korkeudessa
Pilvistä 4100 ft:n korkeudessa

METAR: KSDA 191355Z AUTO 04005KT 10SM FEW008 BKN017 OVC041 20/20 A3016 RMK AO2

Aika: 09:19 (14:19 UTC)


TAF: puuttuu

Säähavainnot ja -ennusteet yli 4000 lentoasemalta (METAR- ja TAF-raportit).

Käytössä olevat sääasemat on merkitty karttaan keltaisilla ja punaisilla pisteillä.

Aseta hiiri pisteen päälle nähdäksesi sääaseman nimen.

Klikkaa sitten nähdäksesi säähavainnot ja -ennusteet.

Kartan vaihtaminen: klikkaa mustalla rastilla varustettuja vihreitä pisteitä, niin voit zoomata sisään; viivalla varustettua vihreää pistettä, niin voit zoomata ulos tai vihreitä nuolia, niin pääset viereisille kartoille.


METAR-TAF: